Time;durP1;ratioP1;P1;durP2;ratioP2;P2;SDS_P1;SDS_P2;PMS_P1;PMS_P2;Temp;Humidity;BMP_temperature;BMP_pressure;BME280_temperature;BME280_humidity;BME280_pressure;Samples;Min_cycle;Max_cycle;Signal;HPM_P1;HPM_P2
2022/04/15 00:02:01;;;;;;;11.45;8.02;;;;;;;11.53;54.54;100075.13;5111061;28;20430;-60
2022/04/15 00:04:30;;;;;;;10.13;8.27;;;;;;;11.57;54.37;100071.75;5111101;28;20672;-59
2022/04/15 00:06:58;;;;;;;13.10;7.37;;;;;;;11.59;53.80;100070.94;5111428;28;20223;-60
2022/04/15 00:09:25;;;;;;;9.40;7.77;;;;;;;11.58;54.21;100068.34;5111228;28;20279;-60
2022/04/15 00:11:53;;;;;;;8.53;7.73;;;;;;;11.38;54.39;100031.91;5111031;28;20305;-59
2022/04/15 00:14:20;;;;;;;8.07;7.27;;;;;;;11.28;54.14;100009.41;5111238;28;20222;-59
2022/04/15 00:16:49;;;;;;;12.73;7.93;;;;;;;11.62;54.14;100063.31;5110940;28;20230;-59
2022/04/15 00:19:16;;;;;;;10.60;7.90;;;;;;;11.59;54.46;100067.53;5110703;28;20225;-59
2022/04/15 00:21:43;;;;;;;9.07;7.90;;;;;;;11.60;54.08;100057.25;5110780;28;20194;-59
2022/04/15 00:24:10;;;;;;;9.60;8.60;;;;;;;11.60;53.82;100057.25;5110801;28;20205;-59
2022/04/15 00:26:37;;;;;;;9.73;7.97;;;;;;;11.62;54.19;100060.72;5110709;28;20384;-59
2022/04/15 00:29:06;;;;;;;12.60;8.63;;;;;;;11.60;54.63;100056.38;5111050;28;20194;-59
2022/04/15 00:31:34;;;;;;;9.07;7.70;;;;;;;11.54;54.67;100051.97;5110614;28;20251;-59
2022/04/15 00:34:02;;;;;;;10.10;8.20;;;;;;;11.53;54.94;100055.41;5110639;28;20186;-59
2022/04/15 00:36:30;;;;;;;11.73;9.47;;;;;;;11.44;55.05;100056.91;5110902;28;20209;-59
2022/04/15 00:38:57;;;;;;;13.47;8.97;;;;;;;11.40;55.51;100039.69;5110422;28;20209;-59
2022/04/15 00:41:24;;;;;;;11.40;8.47;;;;;;;11.33;55.97;100042.94;5110424;28;20192;-59
2022/04/15 00:43:54;;;;;;;12.80;9.30;;;;;;;11.32;55.64;100049.78;5110564;28;20194;-59
2022/04/15 00:46:21;;;;;;;14.52;10.23;;;;;;;11.35;56.14;100048.97;5109883;28;20434;-59
2022/04/15 00:48:48;;;;;;;13.07;9.80;;;;;;;11.33;55.54;100045.50;5110667;28;20281;-59
2022/04/15 00:51:16;;;;;;;17.27;10.07;;;;;;;11.37;55.50;100052.47;5110592;28;20190;-59
2022/04/15 00:53:46;;;;;;;12.60;9.93;;;;;;;11.33;55.72;100051.53;5110569;28;20196;-59
2022/04/15 00:56:14;;;;;;;14.37;9.77;;;;;;;11.34;55.52;100049.81;5110441;28;20194;-59
2022/04/15 00:58:41;;;;;;;13.37;10.10;;;;;;;11.33;55.88;100048.06;5110607;28;20222;-60
2022/04/15 01:01:09;;;;;;;13.50;10.77;;;;;;;11.34;54.24;100047.25;5110053;28;20496;-59
2022/04/15 01:03:37;;;;;;;12.03;10.00;;;;;;;11.30;54.54;100048.88;5110454;28;20514;-59
2022/04/15 01:06:07;;;;;;;13.97;10.60;;;;;;;11.30;54.53;100046.31;5110356;28;20190;-59
2022/04/15 01:08:42;;;;;;;16.17;11.23;;;;;;;11.12;53.56;100018.47;5110619;28;21100;-59
2022/04/15 01:11:12;;;;;;;13.50;11.20;;;;;;;11.21;53.74;100049.53;5110359;28;20280;-59
2022/04/15 01:13:40;;;;;;;13.70;10.90;;;;;;;11.25;53.50;100046.22;5110285;28;20234;-59
2022/04/15 01:16:09;;;;;;;15.53;11.47;;;;;;;11.18;53.46;100044.31;5110535;28;20200;-59
2022/04/15 01:18:36;;;;;;;14.63;11.03;;;;;;;11.13;53.85;100045.94;5110373;28;20214;-59
2022/04/15 01:21:04;;;;;;;17.33;11.70;;;;;;;11.19;53.76;100037.47;5110227;28;20289;-59
2022/04/15 01:23:32;;;;;;;17.53;12.17;;;;;;;11.12;54.30;100036.47;5111089;28;20280;-59
2022/04/15 01:25:59;;;;;;;13.47;9.93;;;;;;;11.13;54.25;100033.06;5114185;28;20276;-59
2022/04/15 01:28:26;;;;;;;15.97;10.50;;;;;;;11.07;53.92;100037.22;5114175;28;20189;-59
2022/04/15 01:30:53;;;;;;;18.90;10.13;;;;;;;11.08;53.76;100042.38;5114361;28;20217;-59
2022/04/15 01:33:20;;;;;;;16.03;9.30;;;;;;;11.07;53.56;100035.50;5114056;28;20187;-59
2022/04/15 01:35:47;;;;;;;11.03;9.60;;;;;;;11.09;54.05;100041.56;5114384;28;20198;-59
2022/04/15 01:38:17;;;;;;;13.67;10.27;;;;;;;11.07;53.67;100043.22;5114017;28;20696;-59
2022/04/15 01:40:46;;;;;;;13.47;9.87;;;;;;;11.04;54.10;100043.13;5113985;28;20198;-59
2022/04/15 01:43:13;;;;;;;13.30;9.43;;;;;;;11.04;54.29;100038.00;5114389;28;20190;-60
2022/04/15 01:45:40;;;;;;;12.20;9.93;;;;;;;10.99;54.06;100039.59;5114125;28;20300;-59
2022/04/15 01:48:08;;;;;;;14.07;10.47;;;;;;;10.91;54.25;100035.97;5114080;28;20201;-59
2022/04/15 01:50:36;;;;;;;13.23;9.57;;;;;;;10.89;54.86;100029.06;5114249;28;20943;-59
2022/04/15 01:53:03;;;;;;;11.83;10.10;;;;;;;10.87;54.62;100029.03;5114040;28;20190;-59
2022/04/15 01:55:30;;;;;;;11.43;10.23;;;;;;;10.88;54.06;100032.47;5114062;28;20289;-59
2022/04/15 01:57:58;;;;;;;12.90;10.37;;;;;;;10.77;54.62;100027.06;5113773;28;20194;-59
2022/04/15 02:00:25;;;;;;;15.50;10.50;;;;;;;10.77;54.67;100024.50;5113703;28;20194;-59
2022/04/15 02:02:52;;;;;;;12.57;10.03;;;;;;;10.76;54.68;100021.91;5113886;28;20193;-58
2022/04/15 02:05:19;;;;;;;13.67;10.67;;;;;;;10.70;54.70;100026.91;5113628;28;20194;-59
2022/04/15 02:07:46;;;;;;;14.83;10.63;;;;;;;10.62;54.67;100019.00;5113671;28;20591;-59
2022/04/15 02:10:13;;;;;;;14.13;11.13;;;;;;;10.64;54.63;100020.78;5113547;28;20568;-59
2022/04/15 02:12:40;;;;;;;12.70;11.40;;;;;;;10.66;54.47;100013.09;5113395;28;20198;-59
2022/04/15 02:15:09;;;;;;;16.13;10.27;;;;;;;10.61;54.98;100010.44;5113335;28;20228;-59
2022/04/15 02:17:36;;;;;;;13.77;11.37;;;;;;;10.57;54.91;100010.31;5113678;28;20258;-59
2022/04/15 02:20:04;;;;;;;12.40;11.07;;;;;;;10.47;55.36;100005.78;5113110;28;20304;-59
2022/04/15 02:22:31;;;;;;;12.67;11.10;;;;;;;10.49;55.50;100015.25;5113077;28;20190;-59
2022/04/15 02:24:58;;;;;;;18.23;11.77;;;;;;;10.46;55.45;100006.63;5113472;28;20204;-58
2022/04/15 02:27:24;;;;;;;14.87;11.90;;;;;;;10.41;55.86;100016.75;5113271;28;20193;-59
2022/04/15 02:29:51;;;;;;;16.83;12.57;;;;;;;10.38;55.98;100010.72;5113174;28;20649;-59
2022/04/15 02:32:20;;;;;;;14.80;11.17;;;;;;;10.36;55.71;100020.03;5113283;27;20262;-59
2022/04/15 02:34:46;;;;;;;20.10;12.80;;;;;;;10.29;56.00;100024.19;5113159;28;20201;-59
2022/04/15 02:37:13;;;;;;;20.37;11.80;;;;;;;10.25;56.00;100021.47;5112926;28;20186;-59
2022/04/15 02:39:40;;;;;;;14.47;11.80;;;;;;;10.20;55.99;100023.94;5112684;27;20214;-59
2022/04/15 02:42:08;;;;;;;11.03;9.80;;;;;;;10.15;56.00;100022.06;5112615;28;20211;-59
2022/04/15 02:44:37;;;;;;;16.57;10.90;;;;;;;10.15;56.49;100016.94;5112710;28;20194;-59
2022/04/15 02:47:04;;;;;;;14.50;11.67;;;;;;;10.08;56.80;100010.72;5112143;28;20438;-59
2022/04/15 02:49:33;;;;;;;15.93;10.40;;;;;;;10.12;56.88;100009.13;5112747;28;20186;-59
2022/04/15 02:52:00;;;;;;;14.10;10.47;;;;;;;10.16;56.74;100011.84;5112689;28;20194;-59
2022/04/15 02:54:27;;;;;;;16.87;10.80;;;;;;;10.08;57.04;100014.16;5112269;28;20285;-59
2022/04/15 02:56:54;;;;;;;11.50;9.80;;;;;;;10.04;56.72;100008.91;5112446;28;20201;-59
2022/04/15 02:59:21;;;;;;;14.30;9.87;;;;;;;9.97;56.85;100013.00;5112339;28;20217;-59
2022/04/15 03:01:49;;;;;;;12.33;9.33;;;;;;;9.87;57.14;100010.16;5112285;28;20190;-59
2022/04/15 03:04:16;;;;;;;12.30;9.90;;;;;;;9.83;57.47;100008.34;5112304;28;20194;-59
2022/04/15 03:06:44;;;;;;;10.50;9.40;;;;;;;9.84;57.29;100013.53;5112475;28;20190;-59
2022/04/15 03:09:11;;;;;;;14.00;10.03;;;;;;;9.79;57.46;100009.97;5112462;28;20190;-59
2022/04/15 03:11:39;;;;;;;12.87;10.33;;;;;;;9.81;57.34;99995.47;5112241;28;20229;-59
2022/04/15 03:14:06;;;;;;;11.17;9.70;;;;;;;9.77;57.51;100008.19;5099509;28;20233;-59
2022/04/15 03:16:34;;;;;;;10.90;8.60;;;;;;;9.71;57.71;100006.31;5091976;28;20206;-59
2022/04/15 03:19:01;;;;;;;16.30;9.97;;;;;;;9.74;57.70;100008.09;5091539;28;20699;-59
2022/04/15 03:21:28;;;;;;;10.73;9.20;;;;;;;9.69;57.83;100007.97;5091863;28;20205;-59
2022/04/15 03:23:56;;;;;;;13.50;10.67;;;;;;;9.63;58.24;100014.63;5092044;28;20217;-59
2022/04/15 03:26:24;;;;;;;10.23;9.13;;;;;;;9.54;58.64;100010.09;5091277;28;20554;-59
2022/04/15 03:28:51;;;;;;;12.43;10.00;;;;;;;9.57;58.76;100015.31;5091346;28;20748;-59
2022/04/15 03:31:17;;;;;;;14.17;9.47;;;;;;;9.53;58.88;100013.50;5091517;28;20199;-59
2022/04/15 03:33:44;;;;;;;13.57;9.30;;;;;;;9.62;58.24;100034.28;5091558;28;20200;-59
2022/04/15 03:36:11;;;;;;;15.87;11.93;;;;;;;9.62;58.09;100029.13;5091469;28;20273;-59
2022/04/15 03:38:40;;;;;;;15.23;9.77;;;;;;;9.58;58.37;100027.34;5091556;28;20218;-59
2022/04/15 03:41:09;;;;;;;14.60;9.17;;;;;;;9.59;58.56;100031.63;5091557;28;20198;-59
2022/04/15 03:43:35;;;;;;;13.27;8.97;;;;;;;9.56;58.45;100028.97;5091198;28;20276;-59
2022/04/15 03:46:02;;;;;;;10.63;9.53;;;;;;;9.52;58.83;100037.41;5090735;28;20202;-59
2022/04/15 03:48:29;;;;;;;14.40;10.37;;;;;;;9.60;59.10;100035.94;5090185;28;20531;-58
2022/04/15 03:50:56;;;;;;;16.80;10.07;;;;;;;9.65;58.81;100029.22;5091057;28;20201;-59
2022/04/15 03:53:23;;;;;;;11.63;9.70;;;;;;;9.66;58.24;100024.97;5091089;28;20197;-59
2022/04/15 03:55:52;;;;;;;17.27;10.70;;;;;;;9.69;58.72;100040.47;5091073;28;20222;-59
2022/04/15 03:58:20;;;;;;;18.37;10.63;;;;;;;9.71;59.00;100029.41;5091097;28;21051;-59
2022/04/15 04:00:47;;;;;;;13.17;10.53;;;;;;;9.70;59.06;100027.66;5090365;28;20214;-59
2022/04/15 04:03:15;;;;;;;14.87;10.90;;;;;;;9.67;59.12;100037.00;5090918;28;20248;-59
2022/04/15 04:05:42;;;;;;;21.77;11.13;;;;;;;9.57;59.60;100029.84;5070983;28;20683;-59
2022/04/15 04:08:09;;;;;;;17.97;10.83;;;;;;;9.55;59.74;100019.53;5070333;28;20683;-59
2022/04/15 04:10:36;;;;;;;20.23;11.40;;;;;;;9.66;59.56;100036.13;5070502;28;20198;-58
2022/04/15 04:13:04;;;;;;;23.87;11.23;;;;;;;9.67;59.50;100035.25;5070372;28;20550;-58
2022/04/15 04:15:33;;;;;;;17.67;11.37;;;;;;;9.74;59.18;100033.75;5070552;28;20192;-59
2022/04/15 04:18:00;;;;;;;14.40;10.73;;;;;;;9.72;58.98;100038.84;5084909;28;20285;-59
2022/04/15 04:20:28;;;;;;;15.03;9.07;;;;;;;9.75;58.85;100036.34;5090515;28;20225;-59
2022/04/15 04:22:55;;;;;;;11.97;10.00;;;;;;;9.81;58.63;100041.66;5090433;28;20195;-59
2022/04/15 04:25:22;;;;;;;12.50;10.17;;;;;;;9.83;58.24;100036.59;5090639;28;20187;-58
2022/04/15 04:27:48;;;;;;;11.50;9.60;;;;;;;9.71;58.59;100034.53;5090344;28;20210;-60
2022/04/15 04:30:16;;;;;;;17.83;10.33;;;;;;;9.83;58.40;100037.44;5090354;28;20575;-58
2022/04/15 04:32:49;;;;;;;17.20;10.83;;;;;;;9.88;58.05;100035.88;5090620;28;20197;-60
2022/04/15 04:35:18;;;;;;;17.17;11.27;;;;;;;9.96;57.75;100044.66;5090202;28;20199;-61
2022/04/15 04:37:45;;;;;;;14.93;10.77;;;;;;;10.01;57.40;100049.91;5089462;28;20256;-60
2022/04/15 04:40:13;;;;;;;12.73;9.87;;;;;;;10.09;57.33;100053.56;5094801;28;20224;-58
2022/04/15 04:42:40;;;;;;;14.17;11.27;;;;;;;10.13;57.09;100054.53;5110404;28;20198;-60
2022/04/15 04:45:10;;;;;;;12.77;9.40;;;;;;;10.16;56.30;100064.91;5110426;28;20637;-61
2022/04/15 04:47:38;;;;;;;14.50;9.50;;;;;;;10.17;56.38;100064.06;5101546;28;20464;-61
2022/04/15 04:50:09;;;;;;;11.13;8.57;;;;;;;10.25;55.82;100062.56;5108829;28;20648;-60
2022/04/15 04:52:36;;;;;;;20.17;10.33;;;;;;;10.32;56.12;100056.78;5110043;28;20657;-60
2022/04/15 04:55:03;;;;;;;15.43;9.33;;;;;;;10.40;55.91;100057.84;5110382;28;20224;-60
2022/04/15 04:57:30;;;;;;;10.80;8.73;;;;;;;10.49;55.84;100061.50;5097488;28;20340;-60
2022/04/15 04:59:57;;;;;;;11.60;8.70;;;;;;;10.50;55.82;100055.53;5113664;28;20221;-61
2022/04/15 05:02:24;;;;;;;13.43;9.40;;;;;;;10.59;55.26;100058.34;5100205;28;20572;-61
2022/04/15 05:04:51;;;;;;;13.67;10.03;;;;;;;10.38;55.85;100023.53;5114419;28;20197;-62
2022/04/15 05:07:19;;;;;;;15.33;10.23;;;;;;;10.58;55.67;100059.16;5113196;28;20198;-61
2022/04/15 05:09:46;;;;;;;15.27;11.43;;;;;;;10.59;55.60;100062.63;5107991;28;20243;-62
2022/04/15 05:12:13;;;;;;;14.10;10.57;;;;;;;10.59;55.96;100055.78;5095817;28;20195;-60
2022/04/15 05:14:40;;;;;;;17.17;11.20;;;;;;;10.61;56.01;100058.38;5093821;28;20237;-61
2022/04/15 05:17:07;;;;;;;12.13;10.70;;;;;;;10.68;55.54;100056.84;5093662;28;20195;-61
2022/04/15 05:19:34;;;;;;;12.43;9.63;;;;;;;10.73;55.52;100062.94;5093503;28;20268;-61
2022/04/15 05:22:01;;;;;;;11.93;10.10;;;;;;;10.78;54.99;100051.94;5093735;28;20190;-61
2022/04/15 05:24:29;;;;;;;18.70;10.13;;;;;;;10.90;55.26;100056.53;5093730;28;20190;-62
2022/04/15 05:26:57;;;;;;;13.87;9.63;;;;;;;11.01;54.71;100058.53;5093671;28;20187;-61
2022/04/15 05:29:24;;;;;;;10.00;8.57;;;;;;;11.14;54.33;100060.53;5093376;28;20238;-62
2022/04/15 05:31:51;;;;;;;11.50;7.00;;;;;;;11.21;54.18;100057.25;5093679;28;20428;-61
2022/04/15 05:34:18;;;;;;;9.83;8.10;;;;;;;11.32;53.66;100061.78;5091769;28;20202;-61
2022/04/15 05:36:45;;;;;;;11.70;8.83;;;;;;;11.40;53.49;100062.84;5091911;28;20305;-61
2022/04/15 05:39:12;;;;;;;11.95;8.52;;;;;;;11.47;53.42;100064.69;5092569;28;20822;-61
2022/04/15 05:41:40;;;;;;;15.30;8.60;;;;;;;11.60;52.84;100056.38;5093058;28;20191;-61
2022/04/15 05:44:08;;;;;;;12.50;8.40;;;;;;;11.64;52.49;100060.78;5090591;28;20630;-61
2022/04/15 05:46:37;;;;;;;11.32;9.27;;;;;;;11.73;52.47;100053.25;5092741;28;20853;-61
2022/04/15 05:49:06;;;;;;;13.77;9.53;;;;;;;11.91;51.55;100056.22;5089835;28;20187;-61
2022/04/15 05:51:33;;;;;;;11.10;8.00;;;;;;;11.99;50.69;100056.34;5092125;28;20215;-61
2022/04/15 05:54:00;;;;;;;12.00;8.67;;;;;;;12.12;50.61;100060.91;5092187;28;20190;-62
2022/04/15 05:56:27;;;;;;;11.90;8.53;;;;;;;12.20;51.02;100059.34;5092099;28;20282;-61
2022/04/15 05:58:56;;;;;;;11.23;7.77;;;;;;;12.32;50.74;100054.41;5091628;28;20669;-61
2022/04/15 06:01:22;;;;;;;9.60;7.33;;;;;;;12.40;49.64;100061.44;5090017;28;20448;-61
2022/04/15 06:03:49;;;;;;;9.83;7.17;;;;;;;12.51;48.98;100059.06;5092371;28;20440;-61
2022/04/15 06:06:16;;;;;;;10.13;8.07;;;;;;;12.53;48.58;100049.63;5091526;28;20286;-61
2022/04/15 06:08:43;;;;;;;12.07;7.43;;;;;;;12.58;48.74;100049.72;5091825;28;20195;-61
2022/04/15 06:11:10;;;;;;;9.07;7.33;;;;;;;12.62;48.70;100043.75;5089250;28;20183;-64
2022/04/15 06:13:41;;;;;;;11.70;7.90;;;;;;;12.73;48.95;100040.53;5092721;28;20225;-64
2022/04/15 06:16:09;;;;;;;12.90;7.67;;;;;;;12.86;48.32;100042.44;5092190;28;20244;-65
2022/04/15 06:18:37;;;;;;;12.63;8.20;;;;;;;12.92;48.77;100047.72;5092322;28;20620;-64
2022/04/15 06:21:04;;;;;;;9.27;8.10;;;;;;;12.95;48.16;100050.34;5092494;28;20214;-64
2022/04/15 06:23:32;;;;;;;8.33;7.50;;;;;;;13.08;47.55;100054.00;5089190;28;20194;-66
2022/04/15 06:25:58;;;;;;;9.13;7.33;;;;;;;13.25;47.09;100044.81;5092021;28;20183;-62
2022/04/15 06:28:25;;;;;;;7.73;7.03;;;;;;;13.43;46.42;100057.94;5091672;28;20740;-62
2022/04/15 06:30:54;;;;;;;10.97;7.63;;;;;;;13.58;45.82;100050.41;5090929;28;20197;-62
2022/04/15 06:33:22;;;;;;;7.40;6.60;;;;;;;13.74;45.39;100048.88;5092162;28;20664;-63
2022/04/15 06:35:50;;;;;;;10.30;6.77;;;;;;;13.81;44.80;100045.56;5092560;28;20222;-63
2022/04/15 06:38:17;;;;;;;9.47;6.73;;;;;;;13.98;44.36;100048.34;5092181;28;20205;-62
2022/04/15 06:40:44;;;;;;;11.53;6.50;;;;;;;14.06;43.54;100052.72;5091754;28;20589;-63
2022/04/15 06:43:13;;;;;;;8.43;6.80;;;;;;;14.15;43.77;100047.66;5092018;28;20530;-62
2022/04/15 06:45:41;;;;;;;9.83;6.10;;;;;;;14.34;43.03;100050.47;5091295;28;20194;-62
2022/04/15 06:48:08;;;;;;;6.17;5.57;;;;;;;14.49;42.13;100046.31;5091848;28;20568;-60
2022/04/15 06:50:37;;;;;;;11.07;6.80;;;;;;;14.63;41.70;100039.53;5091740;28;20194;-60
2022/04/15 06:53:04;;;;;;;9.20;6.47;;;;;;;14.66;41.28;100037.00;5090181;28;20275;-61
2022/04/15 06:55:31;;;;;;;6.63;5.90;;;;;;;14.73;40.22;100043.94;5089743;28;20204;-59
2022/04/15 06:57:58;;;;;;;7.20;5.73;;;;;;;14.79;39.78;100032.78;5090938;28;20273;-56
2022/04/15 07:00:25;;;;;;;7.87;5.93;;;;;;;14.85;39.22;100032.81;5091445;28;20200;-57
2022/04/15 07:02:52;;;;;;;6.67;6.07;;;;;;;14.86;39.47;100039.72;5090986;28;20263;-61
2022/04/15 07:05:19;;;;;;;7.33;5.63;;;;;;;14.82;39.67;100037.09;5088372;28;20188;-61
2022/04/15 07:07:48;;;;;;;6.77;5.90;;;;;;;14.77;40.17;100035.34;5091134;28;20206;-61
2022/04/15 07:10:15;;;;;;;6.83;6.13;;;;;;;14.74;41.34;100030.16;5091232;28;20270;-60
2022/04/15 07:12:41;;;;;;;10.07;6.40;;;;;;;14.78;41.79;100031.91;5091009;28;20198;-61
2022/04/15 07:15:09;;;;;;;7.77;6.90;;;;;;;14.77;42.15;100030.19;5090995;28;20705;-60
2022/04/15 07:17:36;;;;;;;7.43;6.33;;;;;;;14.83;42.15;100033.66;5091045;28;20193;-61
2022/04/15 07:20:04;;;;;;;7.47;6.57;;;;;;;14.88;42.41;100040.59;5091065;28;20250;-61
2022/04/15 07:22:31;;;;;;;10.77;6.73;;;;;;;14.93;43.07;100030.28;5090142;28;20208;-61
2022/04/15 07:24:59;;;;;;;10.53;7.30;;;;;;;15.04;43.10;100026.06;5090956;28;20298;-61
2022/04/15 07:27:26;;;;;;;6.90;6.23;;;;;;;14.97;42.49;100025.13;5090936;28;20282;-61
2022/04/15 07:29:53;;;;;;;8.53;6.50;;;;;;;15.04;42.76;100024.34;5091465;28;20191;-61
2022/04/15 07:32:22;;;;;;;9.90;7.70;;;;;;;15.15;42.89;100019.22;5091397;28;20248;-61
2022/04/15 07:34:49;;;;;;;8.93;6.97;;;;;;;15.23;42.16;100026.19;5090885;28;20253;-61
2022/04/15 07:37:16;;;;;;;9.80;7.27;;;;;;;15.27;41.70;100022.75;5090786;28;20699;-61
2022/04/15 07:39:43;;;;;;;7.30;6.03;;;;;;;15.29;41.37;100015.88;5090450;28;20198;-62
2022/04/15 07:42:12;;;;;;;11.00;7.03;;;;;;;15.38;41.37;100021.06;5090945;28;20631;-61
2022/04/15 07:44:40;;;;;;;8.93;7.17;;;;;;;15.41;42.20;100012.44;5090229;28;20516;-62
2022/04/15 07:47:10;;;;;;;8.17;6.37;;;;;;;15.59;41.82;100020.38;5091090;28;20562;-67
2022/04/15 07:49:37;;;;;;;8.10;6.60;;;;;;;15.67;41.57;100016.06;5090881;28;20224;-66
2022/04/15 07:52:06;;;;;;;9.57;7.00;;;;;;;15.75;41.85;100024.75;5091068;28;20191;-67
2022/04/15 07:54:33;;;;;;;7.13;6.30;;;;;;;15.85;41.86;100016.13;5090551;28;20198;-68
2022/04/15 07:57:00;;;;;;;11.13;7.07;;;;;;;15.98;41.51;100011.00;5090817;28;20198;-68
2022/04/15 07:59:29;;;;;;;8.50;7.07;;;;;;;15.83;40.95;99955.66;5090499;28;20896;-70
2022/04/15 08:01:58;;;;;;;9.80;6.57;;;;;;;16.17;40.70;100002.41;5090830;28;20215;-65
2022/04/15 08:04:25;;;;;;;8.23;6.47;;;;;;;16.08;40.71;100000.66;5090728;28;20190;-63
2022/04/15 08:06:52;;;;;;;9.27;6.50;;;;;;;16.17;39.82;99998.09;5090471;28;20605;-63
2022/04/15 08:09:19;;;;;;;6.67;5.33;;;;;;;16.16;38.75;99998.06;5090796;28;20265;-64
2022/04/15 08:11:46;;;;;;;7.70;6.17;;;;;;;16.24;39.20;99993.75;5090422;28;20190;-57
2022/04/15 08:14:13;;;;;;;9.93;6.50;;;;;;;16.32;39.20;99994.63;5090206;28;20222;-57
2022/04/15 08:16:42;;;;;;;9.27;7.10;;;;;;;16.36;39.82;99992.06;5090516;28;20268;-57
2022/04/15 08:19:10;;;;;;;13.73;7.57;;;;;;;16.44;39.96;99985.16;5090481;28;20195;-57
2022/04/15 08:21:37;;;;;;;7.63;6.60;;;;;;;16.58;39.50;99977.41;5090010;28;20219;-57
2022/04/15 08:24:04;;;;;;;9.27;6.43;;;;;;;16.63;38.35;99967.00;5090546;28;20217;-57
2022/04/15 08:26:31;;;;;;;7.63;6.20;;;;;;;16.66;38.14;99987.75;5090240;28;20673;-58
2022/04/15 08:28:58;;;;;;;8.63;6.60;;;;;;;16.70;38.44;99972.19;5090193;28;20181;-57
2022/04/15 08:31:25;;;;;;;8.53;6.47;;;;;;;16.77;37.80;99979.13;5089764;28;20270;-57
2022/04/15 08:33:53;;;;;;;6.57;5.97;;;;;;;16.86;37.46;99973.06;5089985;28;20190;-57
2022/04/15 08:36:20;;;;;;;7.53;6.00;;;;;;;16.81;37.01;99970.44;5089878;28;20380;-57
2022/04/15 08:38:46;;;;;;;8.87;6.23;;;;;;;17.00;36.92;99966.94;5090295;28;20190;-57
2022/04/15 08:41:18;;;;;;;9.80;6.43;;;;;;;17.02;37.09;99962.63;5089784;28;20223;-57
2022/04/15 08:43:45;;;;;;;8.07;6.43;;;;;;;17.26;37.09;99958.22;5089713;28;20443;-57
2022/04/15 08:46:13;;;;;;;8.63;5.93;;;;;;;17.38;36.76;99955.59;5089748;28;20202;-58
2022/04/15 08:48:40;;;;;;;9.47;6.57;;;;;;;17.59;36.21;99953.81;5089716;28;20191;-58
2022/04/15 08:51:09;;;;;;;11.63;6.17;;;;;;;17.71;35.73;99942.50;5089489;28;20653;-57
2022/04/15 08:53:37;;;;;;;8.73;6.10;;;;;;;17.77;35.48;99939.88;5089765;28;20195;-58
2022/04/15 08:56:04;;;;;;;13.57;8.90;;;;;;;17.94;35.83;99932.81;5089706;28;20533;-58
2022/04/15 08:58:31;;;;;;;9.13;6.83;;;;;;;18.10;35.42;99929.22;5089565;28;20246;-58
2022/04/15 09:00:58;;;;;;;9.95;6.18;;;;;;;18.10;34.60;99942.22;5088917;28;20440;-58
2022/04/15 09:03:25;;;;;;;7.83;6.10;;;;;;;18.21;34.27;99930.00;5089138;28;20277;-58
2022/04/15 09:05:52;;;;;;;7.13;5.20;;;;;;;18.11;33.17;99901.47;5089594;28;20198;-58
2022/04/15 09:08:20;;;;;;;7.50;5.60;;;;;;;18.33;32.19;99916.03;5089438;28;20380;-58
2022/04/15 09:10:57;;;;;;;10.27;5.47;;;;;;;18.44;33.02;99919.41;5089307;28;20218;-58
2022/04/15 09:13:28;;;;;;;5.67;5.00;;;;;;;18.55;32.56;99916.75;5089473;28;20237;-58
2022/04/15 09:15:57;;;;;;;6.80;5.43;;;;;;;18.72;32.43;99912.25;5089595;28;20206;-58
2022/04/15 09:18:31;;;;;;;9.07;5.90;;;;;;;18.86;31.93;99905.16;5087453;28;20205;-58
2022/04/15 09:21:17;;;;;;;9.33;5.63;;;;;;;18.92;30.58;99899.03;5085841;28;20233;-58
2022/04/15 09:23:48;;;;;;;7.43;4.90;;;;;;;18.90;30.83;99904.22;5088702;28;20202;-58
2022/04/15 09:26:15;;;;;;;6.07;5.47;;;;;;;18.96;31.59;99892.88;5077495;28;20210;-58
2022/04/15 09:28:42;;;;;;;8.50;5.20;;;;;;;19.04;31.43;99899.75;5069464;28;20305;-58
2022/04/15 09:31:13;;;;;;;7.80;5.30;;;;;;;19.05;31.08;99893.66;5073955;28;20196;-58
2022/04/15 09:33:51;;;;;;;8.87;5.80;;;;;;;19.23;31.54;99893.44;5069338;28;20199;-58
2022/04/15 09:36:23;;;;;;;7.07;5.33;;;;;;;19.28;31.01;99882.97;5069175;28;20285;-58
2022/04/15 09:38:56;;;;;;;7.37;5.83;;;;;;;19.40;31.58;99881.09;5069624;28;20180;-59
2022/04/15 09:41:24;;;;;;;5.40;4.87;;;;;;;19.47;31.35;99876.66;5069487;28;20219;-59
2022/04/15 09:43:52;;;;;;;11.43;6.30;;;;;;;19.59;31.05;99867.78;5068975;28;20196;-58
2022/04/15 09:46:20;;;;;;;9.57;6.40;;;;;;;19.78;31.08;99870.13;5072362;28;20188;-58
2022/04/15 09:49:07;;;;;;;9.40;6.00;;;;;;;19.91;30.74;99857.75;5084512;28;20203;-58
2022/04/15 09:51:43;;;;;;;10.03;6.43;;;;;;;19.82;31.20;99843.13;5092939;28;20304;-59
2022/04/15 09:54:22;;;;;;;10.37;6.07;;;;;;;19.97;31.42;99855.91;5092812;28;20218;-59
2022/04/15 09:56:50;;;;;;;18.50;6.30;;;;;;;20.09;31.47;99851.38;5092667;28;20201;-59
2022/04/15 09:59:21;;;;;;;10.40;7.03;;;;;;;19.96;31.79;99855.94;5091256;28;20424;-59
2022/04/15 10:01:53;;;;;;;13.40;6.50;;;;;;;20.02;32.11;99845.41;5092563;28;20685;-59
2022/04/15 10:04:21;;;;;;;7.30;6.50;;;;;;;19.92;32.36;99844.69;5090439;28;20202;-58
2022/04/15 10:06:48;;;;;;;7.10;6.23;;;;;;;19.67;32.56;99845.94;5091683;28;20187;-59
2022/04/15 10:09:16;;;;;;;8.50;6.00;;;;;;;19.44;32.53;99837.59;5091967;28;20658;-58
2022/04/15 10:11:45;;;;;;;7.57;6.40;;;;;;;19.54;32.85;99836.59;5091769;28;20277;-59
2022/04/15 10:14:13;;;;;;;10.30;6.00;;;;;;;19.60;32.84;99793.94;5091189;28;20351;-59
2022/04/15 10:16:53;;;;;;;9.83;6.63;;;;;;;19.95;31.41;99820.28;5089744;28;21075;-59
2022/04/15 10:19:20;;;;;;;8.00;5.23;;;;;;;19.98;30.69;99813.28;5089734;28;20277;-59
2022/04/15 10:21:51;;;;;;;6.23;5.63;;;;;;;20.06;30.02;99812.28;5091475;28;20226;-58
2022/04/15 10:24:23;;;;;;;10.47;5.70;;;;;;;20.29;30.34;99813.66;5091275;28;20290;-58
2022/04/15 10:26:58;;;;;;;5.27;4.70;;;;;;;20.35;29.43;99803.13;5091338;28;20195;-58
2022/04/15 10:29:25;;;;;;;7.53;5.00;;;;;;;20.42;29.89;99796.00;5090376;28;20295;-59
2022/04/15 10:31:53;;;;;;;5.67;4.20;;;;;;;20.44;29.41;99797.69;5090966;28;20205;-58
2022/04/15 10:34:22;;;;;;;8.73;4.80;;;;;;;20.56;29.76;99796.63;5091232;28;20199;-58
2022/04/15 10:36:50;;;;;;;6.67;4.73;;;;;;;20.39;29.48;99786.50;5090969;28;20187;-58
2022/04/15 10:39:21;;;;;;;6.33;4.70;;;;;;;20.52;30.33;99782.75;5090513;28;20191;-59
2022/04/15 10:41:56;;;;;;;9.07;5.00;;;;;;;20.63;30.55;99777.31;5091632;28;20327;-59
2022/04/15 10:44:28;;;;;;;9.97;5.23;;;;;;;20.86;30.20;99776.84;5091847;28;20433;-59
2022/04/15 10:46:58;;;;;;;6.30;5.63;;;;;;;21.02;30.30;99773.88;5091453;28;20213;-59
2022/04/15 10:49:27;;;;;;;5.00;4.53;;;;;;;21.23;29.94;99762.16;5091734;28;20199;-59
2022/04/15 10:51:59;;;;;;;5.47;4.33;;;;;;;21.29;29.65;99771.59;5091645;28;20257;-60
2022/04/15 10:54:45;;;;;;;6.00;4.83;;;;;;;21.13;29.76;99760.63;5091856;28;20269;-59
2022/04/15 10:57:15;;;;;;;8.37;4.47;;;;;;;21.11;29.59;99754.56;5090419;28;20561;-59
2022/04/15 11:02:45;;;;;;;7.40;5.07;;;;;;;21.21;28.89;99749.97;5091413;28;20349;-59
2022/04/15 11:05:13;;;;;;;5.87;4.80;;;;;;;21.22;29.74;99744.75;5091366;28;20202;-58
2022/04/15 11:07:47;;;;;;;9.13;5.37;;;;;;;21.27;29.75;99732.41;5091313;28;20194;-59
2022/04/15 11:11:02;;;;;;;7.97;6.10;;;;;;;21.40;29.75;99731.22;5091385;28;20542;-58
2022/04/15 11:13:47;;;;;;;12.77;7.00;;;;;;;21.59;28.91;99722.03;5090899;28;20339;-59
2022/04/15 11:16:15;;;;;;;9.10;5.60;;;;;;;21.68;29.26;99723.56;5078275;28;20687;-59
2022/04/15 11:18:50;;;;;;;8.80;5.40;;;;;;;21.75;29.33;99726.00;5091313;28;20281;-57
2022/04/15 11:21:18;;;;;;;5.70;5.20;;;;;;;21.78;29.43;99718.06;5091025;28;20261;-58
2022/04/15 11:23:48;;;;;;;6.47;5.87;;;;;;;21.76;29.62;99719.00;5091166;28;20657;-58
2022/04/15 11:26:16;;;;;;;7.93;5.67;;;;;;;21.89;29.30;99712.63;5091152;28;20202;-58
2022/04/15 11:28:46;;;;;;;6.97;6.27;;;;;;;21.97;29.06;99715.03;5090655;28;20187;-59
2022/04/15 11:31:21;;;;;;;9.90;7.17;;;;;;;22.01;28.70;99717.50;5091238;28;21017;-58